Tropical Cyclones
[Index]
Main Index Home Page Stock Weather Photos Extreme Storms Discussion Storm News and Storm Chasing Reports Tropical Cyclones / Hurricanes / Typhoons Weather Data and Links Wild Fires / Bushfires Weather Observation Techniques Weather Picture Catalogue Tornado Pictures and Reports Stock Video Footage and DVDs for sale
Season 1997-1998 Tropical Cyclone SID Track Map
Season 1997-1998 Summaries: [BoM-AU] [JTWC-AU] [JTWC-SIO] [JTWC-SPAC] [JTWC-SH]
<<- Previous TC | BoM 1997-1998 Season | Next TC ->>

click for intensity scale information  Lat/long Grid: Show Hide

 Date Labels: Show Hide

Bureau of Meteorology Tropical Cyclone Data

Name: SID
Number: 808 / 199798_02

24 Dec 1997 18:00 UTC to 29 Dec 1997 00:00 UTC

    date/time    lat    long    hPa   cat  kts
1997-12-24 18   13.2   130.1   1005         25          
1997-12-25 00   12.7   129.7   1006         25          
1997-12-25 06   12.2   129.8   1003         25          
1997-12-25 12   11.6   130.2   1004         25          
1997-12-25 18   11.1   131.2    999         30          
1997-12-26 00   10.9   132.2    999         35          
1997-12-26 03   11.0   132.6    996         35          
1997-12-26 06   11.0   132.9    992    1    35          
1997-12-26 12   11.3   133.8    992    1    40          
1997-12-26 18   11.6   134.9    990    1    40          
1997-12-27 00   12.1   135.7    992    1    35          
1997-12-27 03   12.2   136.2    990    1    40          
1997-12-27 06   12.4   136.3    989    1    40          
1997-12-27 09   12.8   137.0    988    1    45          
1997-12-27 12   13.3   137.6    988    1    45          
1997-12-27 18   14.0   138.0    985    2    50          
1997-12-28 00   14.9   138.5    988    1    45          
1997-12-28 06   15.9   138.8    990    1    40          
1997-12-28 09   16.2   138.8    992    1    35          
1997-12-28 12   16.4   138.8    994    1    30          
1997-12-28 18   16.5   138.0    995    1    25          
1997-12-29 00   16.3   137.2    996         25          
Winds are 10-min average.

Tropical cyclone tracks developed by Michael Bath using data from the Bureau of Meteorology and Google Maps.


[Australian Severe Weather index] [Copyright Notice] [Email Contacts] [Search This Site] [Privacy Policy]
Document: tropical_cyclone_sid.htm Updated: 30 May 2013